sensor_id;sensor_type;location;lat;lon;timestamp;P1;durP1;ratioP1;P2;durP2;ratioP2
5718;SDS011;2884;47.734;9.244;2023-02-26T00:01:11;1.65;;;1.55;;
5718;SDS011;2884;47.734;9.244;2023-02-26T00:03:37;3.15;;;1.80;;
5718;SDS011;2884;47.734;9.244;2023-02-26T00:06:03;4.20;;;1.53;;
5718;SDS011;2884;47.734;9.244;2023-02-26T00:08:29;4.20;;;1.90;;
5718;SDS011;2884;47.734;9.244;2023-02-26T00:10:55;2.90;;;2.15;;
5718;SDS011;2884;47.734;9.244;2023-02-26T00:13:22;9.25;;;2.38;;
5718;SDS011;2884;47.734;9.244;2023-02-26T00:15:49;2.90;;;1.80;;
5718;SDS011;2884;47.734;9.244;2023-02-26T00:18:18;6.72;;;2.00;;
5718;SDS011;2884;47.734;9.244;2023-02-26T00:20:44;2.37;;;1.70;;
5718;SDS011;2884;47.734;9.244;2023-02-26T00:23:11;3.90;;;2.17;;
5718;SDS011;2884;47.734;9.244;2023-02-26T00:25:38;4.47;;;2.05;;
5718;SDS011;2884;47.734;9.244;2023-02-26T00:28:05;2.00;;;1.80;;
5718;SDS011;2884;47.734;9.244;2023-02-26T00:30:31;4.10;;;1.83;;
5718;SDS011;2884;47.734;9.244;2023-02-26T00:32:57;6.68;;;1.90;;
5718;SDS011;2884;47.734;9.244;2023-02-26T00:35:23;7.45;;;1.90;;
5718;SDS011;2884;47.734;9.244;2023-02-26T00:40:44;5.53;;;1.70;;
5718;SDS011;2884;47.734;9.244;2023-02-26T00:43:15;2.05;;;1.50;;
5718;SDS011;2884;47.734;9.244;2023-02-26T00:49:02;5.25;;;1.85;;
5718;SDS011;2884;47.734;9.244;2023-02-26T00:51:38;2.00;;;1.80;;
5718;SDS011;2884;47.734;9.244;2023-02-26T00:54:21;7.20;;;2.05;;
5718;SDS011;2884;47.734;9.244;2023-02-26T00:56:50;1.98;;;1.48;;
5718;SDS011;2884;47.734;9.244;2023-02-26T00:59:17;2.63;;;1.90;;
5718;SDS011;2884;47.734;9.244;2023-02-26T01:01:43;8.05;;;2.40;;
5718;SDS011;2884;47.734;9.244;2023-02-26T01:04:09;4.25;;;1.55;;
5718;SDS011;2884;47.734;9.244;2023-02-26T01:06:38;2.75;;;2.03;;
5718;SDS011;2884;47.734;9.244;2023-02-26T01:11:35;2.10;;;1.70;;
5718;SDS011;2884;47.734;9.244;2023-02-26T01:14:02;7.20;;;2.17;;
5718;SDS011;2884;47.734;9.244;2023-02-26T01:16:29;2.13;;;1.85;;
5718;SDS011;2884;47.734;9.244;2023-02-26T01:19:01;3.00;;;1.77;;
5718;SDS011;2884;47.734;9.244;2023-02-26T01:21:48;2.63;;;1.70;;
5718;SDS011;2884;47.734;9.244;2023-02-26T01:24:19;2.35;;;2.10;;
5718;SDS011;2884;47.734;9.244;2023-02-26T01:26:47;2.88;;;1.90;;
5718;SDS011;2884;47.734;9.244;2023-02-26T01:29:15;2.22;;;1.75;;
5718;SDS011;2884;47.734;9.244;2023-02-26T01:31:55;4.10;;;2.08;;
5718;SDS011;2884;47.734;9.244;2023-02-26T01:37:47;1.75;;;1.52;;
5718;SDS011;2884;47.734;9.244;2023-02-26T01:43:13;7.47;;;2.50;;
5718;SDS011;2884;47.734;9.244;2023-02-26T01:48:21;3.63;;;2.00;;
5718;SDS011;2884;47.734;9.244;2023-02-26T01:51:03;2.75;;;1.98;;
5718;SDS011;2884;47.734;9.244;2023-02-26T01:53:29;3.40;;;2.20;;
5718;SDS011;2884;47.734;9.244;2023-02-26T01:55:56;2.43;;;2.23;;
5718;SDS011;2884;47.734;9.244;2023-02-26T01:58:27;3.90;;;2.78;;
5718;SDS011;2884;47.734;9.244;2023-02-26T02:00:56;3.97;;;3.10;;
5718;SDS011;2884;47.734;9.244;2023-02-26T02:03:21;3.23;;;2.77;;
5718;SDS011;2884;47.734;9.244;2023-02-26T02:05:53;5.35;;;2.47;;
5718;SDS011;2884;47.734;9.244;2023-02-26T02:08:21;3.00;;;2.70;;
5718;SDS011;2884;47.734;9.244;2023-02-26T02:10:47;4.63;;;2.30;;
5718;SDS011;2884;47.734;9.244;2023-02-26T02:15:51;1.90;;;1.70;;
5718;SDS011;2884;47.734;9.244;2023-02-26T02:31:53;1.90;;;1.65;;
5718;SDS011;2884;47.734;9.244;2023-02-26T02:34:59;8.30;;;1.75;;
5718;SDS011;2884;47.734;9.244;2023-02-26T02:37:46;2.47;;;1.80;;
5718;SDS011;2884;47.734;9.244;2023-02-26T02:40:17;2.63;;;1.52;;
5718;SDS011;2884;47.734;9.244;2023-02-26T02:47:52;1.70;;;1.60;;
5718;SDS011;2884;47.734;9.244;2023-02-26T02:50:24;1.42;;;1.35;;
5718;SDS011;2884;47.734;9.244;2023-02-26T02:53:00;3.17;;;1.70;;
5718;SDS011;2884;47.734;9.244;2023-02-26T02:55:37;2.15;;;1.50;;
5718;SDS011;2884;47.734;9.244;2023-02-26T02:58:10;2.65;;;1.98;;
5718;SDS011;2884;47.734;9.244;2023-02-26T03:00:39;1.35;;;1.35;;
5718;SDS011;2884;47.734;9.244;2023-02-26T03:05:52;2.15;;;1.60;;
5718;SDS011;2884;47.734;9.244;2023-02-26T03:08:23;1.60;;;1.50;;
5718;SDS011;2884;47.734;9.244;2023-02-26T03:10:52;3.47;;;1.80;;
5718;SDS011;2884;47.734;9.244;2023-02-26T03:13:20;1.90;;;1.50;;
5718;SDS011;2884;47.734;9.244;2023-02-26T03:21:36;1.35;;;1.25;;
5718;SDS011;2884;47.734;9.244;2023-02-26T03:26:46;1.00;;;1.00;;
5718;SDS011;2884;47.734;9.244;2023-02-26T03:31:54;1.75;;;1.02;;
5718;SDS011;2884;47.734;9.244;2023-02-26T03:36:56;1.55;;;1.17;;
5718;SDS011;2884;47.734;9.244;2023-02-26T03:39:40;1.33;;;1.25;;
5718;SDS011;2884;47.734;9.244;2023-02-26T03:42:13;2.45;;;1.40;;
5718;SDS011;2884;47.734;9.244;2023-02-26T03:44:56;1.50;;;1.40;;
5718;SDS011;2884;47.734;9.244;2023-02-26T03:47:23;3.20;;;1.30;;
5718;SDS011;2884;47.734;9.244;2023-02-26T03:49:58;2.20;;;1.30;;
5718;SDS011;2884;47.734;9.244;2023-02-26T03:52:27;1.45;;;1.13;;
5718;SDS011;2884;47.734;9.244;2023-02-26T03:55:02;2.33;;;1.30;;
5718;SDS011;2884;47.734;9.244;2023-02-26T03:57:30;2.25;;;1.20;;
5718;SDS011;2884;47.734;9.244;2023-02-26T03:59:55;1.47;;;1.37;;
5718;SDS011;2884;47.734;9.244;2023-02-26T04:02:25;2.10;;;1.50;;
5718;SDS011;2884;47.734;9.244;2023-02-26T04:04:53;2.88;;;1.50;;
5718;SDS011;2884;47.734;9.244;2023-02-26T04:07:22;1.52;;;1.42;;
5718;SDS011;2884;47.734;9.244;2023-02-26T04:09:49;1.97;;;1.10;;
5718;SDS011;2884;47.734;9.244;2023-02-26T04:12:19;5.10;;;1.95;;
5718;SDS011;2884;47.734;9.244;2023-02-26T04:14:46;1.30;;;1.20;;
5718;SDS011;2884;47.734;9.244;2023-02-26T04:17:11;1.70;;;1.53;;
5718;SDS011;2884;47.734;9.244;2023-02-26T04:19:37;2.97;;;1.27;;
5718;SDS011;2884;47.734;9.244;2023-02-26T04:22:02;1.90;;;1.30;;
5718;SDS011;2884;47.734;9.244;2023-02-26T04:24:28;7.13;;;1.27;;
5718;SDS011;2884;47.734;9.244;2023-02-26T04:26:53;1.30;;;1.20;;
5718;SDS011;2884;47.734;9.244;2023-02-26T04:29:19;1.30;;;1.20;;
5718;SDS011;2884;47.734;9.244;2023-02-26T04:31:45;5.17;;;1.67;;
5718;SDS011;2884;47.734;9.244;2023-02-26T04:34:10;1.70;;;1.57;;
5718;SDS011;2884;47.734;9.244;2023-02-26T04:36:36;2.70;;;2.20;;
5718;SDS011;2884;47.734;9.244;2023-02-26T04:39:01;1.87;;;1.77;;
5718;SDS011;2884;47.734;9.244;2023-02-26T04:41:27;1.87;;;1.60;;
5718;SDS011;2884;47.734;9.244;2023-02-26T04:43:53;2.70;;;1.60;;
5718;SDS011;2884;47.734;9.244;2023-02-26T04:46:18;3.63;;;2.17;;
5718;SDS011;2884;47.734;9.244;2023-02-26T04:48:43;2.13;;;2.03;;
5718;SDS011;2884;47.734;9.244;2023-02-26T04:51:09;2.80;;;1.97;;
5718;SDS011;2884;47.734;9.244;2023-02-26T04:53:35;2.60;;;1.67;;
5718;SDS011;2884;47.734;9.244;2023-02-26T04:56:00;1.83;;;1.70;;
5718;SDS011;2884;47.734;9.244;2023-02-26T04:58:26;2.33;;;2.10;;
5718;SDS011;2884;47.734;9.244;2023-02-26T05:00:52;3.07;;;2.03;;
5718;SDS011;2884;47.734;9.244;2023-02-26T05:03:19;1.95;;;1.85;;
5718;SDS011;2884;47.734;9.244;2023-02-26T05:05:45;2.10;;;2.00;;
5718;SDS011;2884;47.734;9.244;2023-02-26T05:08:11;2.67;;;2.20;;
5718;SDS011;2884;47.734;9.244;2023-02-26T05:10:36;2.53;;;2.03;;
5718;SDS011;2884;47.734;9.244;2023-02-26T05:13:02;6.03;;;1.70;;
5718;SDS011;2884;47.734;9.244;2023-02-26T05:15:27;2.33;;;1.70;;
5718;SDS011;2884;47.734;9.244;2023-02-26T05:17:53;4.00;;;2.20;;
5718;SDS011;2884;47.734;9.244;2023-02-26T05:20:19;3.57;;;2.10;;
5718;SDS011;2884;47.734;9.244;2023-02-26T05:22:44;10.10;;;2.27;;
5718;SDS011;2884;47.734;9.244;2023-02-26T05:25:10;7.70;;;2.60;;
5718;SDS011;2884;47.734;9.244;2023-02-26T05:27:39;5.55;;;2.85;;
5718;SDS011;2884;47.734;9.244;2023-02-26T05:30:07;4.43;;;1.98;;
5718;SDS011;2884;47.734;9.244;2023-02-26T05:32:33;1.88;;;1.50;;
5718;SDS011;2884;47.734;9.244;2023-02-26T05:34:59;4.77;;;2.17;;
5718;SDS011;2884;47.734;9.244;2023-02-26T05:37:24;3.13;;;1.80;;
5718;SDS011;2884;47.734;9.244;2023-02-26T05:39:49;2.30;;;2.10;;
5718;SDS011;2884;47.734;9.244;2023-02-26T05:42:15;2.10;;;1.80;;
5718;SDS011;2884;47.734;9.244;2023-02-26T05:44:41;1.40;;;1.30;;
5718;SDS011;2884;47.734;9.244;2023-02-26T05:47:06;2.50;;;1.90;;
5718;SDS011;2884;47.734;9.244;2023-02-26T05:49:32;3.87;;;1.60;;
5718;SDS011;2884;47.734;9.244;2023-02-26T05:51:58;3.13;;;1.50;;
5718;SDS011;2884;47.734;9.244;2023-02-26T05:54:23;4.63;;;2.27;;
5718;SDS011;2884;47.734;9.244;2023-02-26T05:56:49;1.20;;;0.93;;
5718;SDS011;2884;47.734;9.244;2023-02-26T05:59:14;6.93;;;2.10;;
5718;SDS011;2884;47.734;9.244;2023-02-26T06:01:40;4.80;;;1.88;;
5718;SDS011;2884;47.734;9.244;2023-02-26T06:04:07;1.67;;;1.02;;
5718;SDS011;2884;47.734;9.244;2023-02-26T06:06:32;4.70;;;1.17;;
5718;SDS011;2884;47.734;9.244;2023-02-26T06:08:58;4.13;;;2.13;;
5718;SDS011;2884;47.734;9.244;2023-02-26T06:11:25;5.93;;;1.45;;
5718;SDS011;2884;47.734;9.244;2023-02-26T06:13:51;3.57;;;1.53;;
5718;SDS011;2884;47.734;9.244;2023-02-26T06:16:16;2.00;;;1.13;;
5718;SDS011;2884;47.734;9.244;2023-02-26T06:18:45;2.72;;;1.80;;
5718;SDS011;2884;47.734;9.244;2023-02-26T06:21:10;2.78;;;1.45;;
5718;SDS011;2884;47.734;9.244;2023-02-26T06:23:36;4.00;;;1.47;;
5718;SDS011;2884;47.734;9.244;2023-02-26T06:26:01;1.47;;;1.37;;
5718;SDS011;2884;47.734;9.244;2023-02-26T06:28:27;3.23;;;1.20;;
5718;SDS011;2884;47.734;9.244;2023-02-26T06:30:56;2.13;;;1.40;;
5718;SDS011;2884;47.734;9.244;2023-02-26T06:33:22;1.83;;;1.03;;
5718;SDS011;2884;47.734;9.244;2023-02-26T06:35:48;1.67;;;1.20;;
5718;SDS011;2884;47.734;9.244;2023-02-26T06:38:14;1.45;;;1.20;;
5718;SDS011;2884;47.734;9.244;2023-02-26T06:40:40;1.83;;;1.20;;
5718;SDS011;2884;47.734;9.244;2023-02-26T06:43:06;9.43;;;1.47;;
5718;SDS011;2884;47.734;9.244;2023-02-26T06:45:32;1.77;;;1.27;;
5718;SDS011;2884;47.734;9.244;2023-02-26T06:47:57;3.83;;;1.33;;
5718;SDS011;2884;47.734;9.244;2023-02-26T06:50:23;2.33;;;1.30;;
5718;SDS011;2884;47.734;9.244;2023-02-26T06:52:48;1.57;;;1.20;;
5718;SDS011;2884;47.734;9.244;2023-02-26T06:55:15;1.92;;;0.88;;
5718;SDS011;2884;47.734;9.244;2023-02-26T06:57:40;1.50;;;1.20;;
5718;SDS011;2884;47.734;9.244;2023-02-26T07:00:07;3.07;;;1.20;;
5718;SDS011;2884;47.734;9.244;2023-02-26T07:02:33;1.50;;;1.15;;
5718;SDS011;2884;47.734;9.244;2023-02-26T07:04:59;1.63;;;1.53;;
5718;SDS011;2884;47.734;9.244;2023-02-26T07:07:25;1.67;;;1.27;;
5718;SDS011;2884;47.734;9.244;2023-02-26T07:09:50;2.33;;;1.30;;
5718;SDS011;2884;47.734;9.244;2023-02-26T07:12:16;1.90;;;1.23;;
5718;SDS011;2884;47.734;9.244;2023-02-26T07:14:41;1.07;;;0.80;;
5718;SDS011;2884;47.734;9.244;2023-02-26T07:17:08;3.10;;;1.35;;
5718;SDS011;2884;47.734;9.244;2023-02-26T07:19:34;1.97;;;1.40;;
5718;SDS011;2884;47.734;9.244;2023-02-26T07:21:59;4.17;;;1.63;;
5718;SDS011;2884;47.734;9.244;2023-02-26T07:24:25;1.80;;;1.27;;
5718;SDS011;2884;47.734;9.244;2023-02-26T07:26:51;6.33;;;2.03;;
5718;SDS011;2884;47.734;9.244;2023-02-26T07:29:16;1.43;;;0.90;;
5718;SDS011;2884;47.734;9.244;2023-02-26T07:31:42;2.03;;;1.00;;
5718;SDS011;2884;47.734;9.244;2023-02-26T07:34:07;1.90;;;1.40;;
5718;SDS011;2884;47.734;9.244;2023-02-26T07:36:33;2.97;;;1.10;;
5718;SDS011;2884;47.734;9.244;2023-02-26T07:38:59;1.47;;;1.00;;
5718;SDS011;2884;47.734;9.244;2023-02-26T07:41:24;2.30;;;1.20;;
5718;SDS011;2884;47.734;9.244;2023-02-26T07:43:49;2.10;;;1.13;;
5718;SDS011;2884;47.734;9.244;2023-02-26T07:46:15;1.33;;;1.07;;
5718;SDS011;2884;47.734;9.244;2023-02-26T07:48:41;3.67;;;1.10;;
5718;SDS011;2884;47.734;9.244;2023-02-26T07:51:06;5.03;;;1.57;;
5718;SDS011;2884;47.734;9.244;2023-02-26T07:53:32;3.07;;;1.70;;
5718;SDS011;2884;47.734;9.244;2023-02-26T07:55:58;2.50;;;1.52;;
5718;SDS011;2884;47.734;9.244;2023-02-26T07:58:24;1.20;;;1.10;;
5718;SDS011;2884;47.734;9.244;2023-02-26T08:00:50;5.03;;;1.10;;
5718;SDS011;2884;47.734;9.244;2023-02-26T08:03:17;2.78;;;1.17;;
5718;SDS011;2884;47.734;9.244;2023-02-26T08:05:43;1.17;;;0.90;;
5718;SDS011;2884;47.734;9.244;2023-02-26T08:08:08;1.70;;;1.60;;
5718;SDS011;2884;47.734;9.244;2023-02-26T08:10:34;1.67;;;1.10;;
5718;SDS011;2884;47.734;9.244;2023-02-26T08:13:00;1.47;;;1.00;;
5718;SDS011;2884;47.734;9.244;2023-02-26T08:15:25;1.80;;;0.97;;
5718;SDS011;2884;47.734;9.244;2023-02-26T08:17:51;4.63;;;1.03;;
5718;SDS011;2884;47.734;9.244;2023-02-26T08:20:17;2.47;;;1.23;;
5718;SDS011;2884;47.734;9.244;2023-02-26T08:22:43;1.73;;;1.20;;
5718;SDS011;2884;47.734;9.244;2023-02-26T08:25:09;3.60;;;0.90;;
5718;SDS011;2884;47.734;9.244;2023-02-26T08:27:34;1.33;;;0.93;;
5718;SDS011;2884;47.734;9.244;2023-02-26T08:30:00;1.40;;;0.80;;
5718;SDS011;2884;47.734;9.244;2023-02-26T08:32:26;2.50;;;1.10;;
5718;SDS011;2884;47.734;9.244;2023-02-26T08:34:52;1.40;;;0.90;;
5718;SDS011;2884;47.734;9.244;2023-02-26T08:37:17;1.97;;;1.00;;
5718;SDS011;2884;47.734;9.244;2023-02-26T08:39:46;6.20;;;1.52;;
5718;SDS011;2884;47.734;9.244;2023-02-26T08:42:11;4.60;;;1.90;;
5718;SDS011;2884;47.734;9.244;2023-02-26T08:44:41;1.70;;;1.00;;
5718;SDS011;2884;47.734;9.244;2023-02-26T08:47:07;5.38;;;1.77;;
5718;SDS011;2884;47.734;9.244;2023-02-26T08:49:32;2.53;;;1.00;;
5718;SDS011;2884;47.734;9.244;2023-02-26T08:51:59;1.13;;;1.03;;
5718;SDS011;2884;47.734;9.244;2023-02-26T08:54:24;2.65;;;1.30;;
5718;SDS011;2884;47.734;9.244;2023-02-26T08:56:50;2.60;;;1.30;;
5718;SDS011;2884;47.734;9.244;2023-02-26T08:59:17;7.32;;;1.42;;
5718;SDS011;2884;47.734;9.244;2023-02-26T09:01:43;2.10;;;1.00;;
5718;SDS011;2884;47.734;9.244;2023-02-26T09:07:30;1.48;;;0.80;;
5718;SDS011;2884;47.734;9.244;2023-02-26T09:09:56;8.45;;;1.38;;
5718;SDS011;2884;47.734;9.244;2023-02-26T09:12:22;1.10;;;0.70;;
5718;SDS011;2884;47.734;9.244;2023-02-26T09:14:47;0.93;;;0.93;;
5718;SDS011;2884;47.734;9.244;2023-02-26T09:17:13;2.00;;;0.73;;
5718;SDS011;2884;47.734;9.244;2023-02-26T09:19:38;1.77;;;0.80;;
5718;SDS011;2884;47.734;9.244;2023-02-26T09:22:04;1.37;;;1.27;;
5718;SDS011;2884;47.734;9.244;2023-02-26T09:24:30;0.90;;;0.90;;
5718;SDS011;2884;47.734;9.244;2023-02-26T09:26:55;2.60;;;1.20;;
5718;SDS011;2884;47.734;9.244;2023-02-26T09:29:21;1.90;;;0.83;;
5718;SDS011;2884;47.734;9.244;2023-02-26T09:31:46;5.40;;;1.07;;
5718;SDS011;2884;47.734;9.244;2023-02-26T09:34:12;2.33;;;1.03;;
5718;SDS011;2884;47.734;9.244;2023-02-26T09:36:38;7.83;;;1.23;;
5718;SDS011;2884;47.734;9.244;2023-02-26T09:39:04;3.38;;;1.92;;
5718;SDS011;2884;47.734;9.244;2023-02-26T09:41:30;0.93;;;0.80;;
5718;SDS011;2884;47.734;9.244;2023-02-26T09:44:09;0.70;;;0.70;;
5718;SDS011;2884;47.734;9.244;2023-02-26T09:52:05;5.97;;;1.30;;
5718;SDS011;2884;47.734;9.244;2023-02-26T09:54:43;1.08;;;0.80;;
5718;SDS011;2884;47.734;9.244;2023-02-26T09:57:31;3.40;;;1.90;;
5718;SDS011;2884;47.734;9.244;2023-02-26T10:00:05;1.20;;;0.85;;
5718;SDS011;2884;47.734;9.244;2023-02-26T10:13:02;1.98;;;1.50;;
5718;SDS011;2884;47.734;9.244;2023-02-26T10:15:35;5.57;;;0.98;;
5718;SDS011;2884;47.734;9.244;2023-02-26T10:20:54;1.88;;;0.90;;
5718;SDS011;2884;47.734;9.244;2023-02-26T10:23:33;4.18;;;1.00;;
5718;SDS011;2884;47.734;9.244;2023-02-26T10:26:04;5.30;;;0.80;;
5718;SDS011;2884;47.734;9.244;2023-02-26T10:28:36;5.93;;;1.20;;
5718;SDS011;2884;47.734;9.244;2023-02-26T10:31:11;0.70;;;0.70;;
5718;SDS011;2884;47.734;9.244;2023-02-26T10:36:33;1.33;;;1.10;;
5718;SDS011;2884;47.734;9.244;2023-02-26T10:39:51;2.33;;;1.20;;
5718;SDS011;2884;47.734;9.244;2023-02-26T10:41:57;0.95;;;0.90;;
5718;SDS011;2884;47.734;9.244;2023-02-26T10:52:25;2.78;;;1.10;;
5718;SDS011;2884;47.734;9.244;2023-02-26T10:57:37;3.00;;;1.23;;
5718;SDS011;2884;47.734;9.244;2023-02-26T11:00:09;1.20;;;0.88;;
5718;SDS011;2884;47.734;9.244;2023-02-26T11:02:41;1.38;;;0.70;;
5718;SDS011;2884;47.734;9.244;2023-02-26T11:05:14;1.02;;;0.70;;
5718;SDS011;2884;47.734;9.244;2023-02-26T11:07:43;2.65;;;0.95;;
5718;SDS011;2884;47.734;9.244;2023-02-26T11:10:15;1.63;;;0.90;;
5718;SDS011;2884;47.734;9.244;2023-02-26T11:12:42;0.95;;;0.93;;
5718;SDS011;2884;47.734;9.244;2023-02-26T11:15:12;1.40;;;1.10;;
5718;SDS011;2884;47.734;9.244;2023-02-26T11:17:39;3.70;;;1.10;;
5718;SDS011;2884;47.734;9.244;2023-02-26T11:20:47;1.35;;;1.00;;
5718;SDS011;2884;47.734;9.244;2023-02-26T11:22:56;1.08;;;0.80;;
5718;SDS011;2884;47.734;9.244;2023-02-26T11:25:26;1.00;;;1.00;;
5718;SDS011;2884;47.734;9.244;2023-02-26T11:27:58;1.02;;;0.90;;
5718;SDS011;2884;47.734;9.244;2023-02-26T11:30:34;0.70;;;0.70;;
5718;SDS011;2884;47.734;9.244;2023-02-26T11:33:44;1.00;;;0.80;;
5718;SDS011;2884;47.734;9.244;2023-02-26T11:35:59;1.85;;;1.13;;
5718;SDS011;2884;47.734;9.244;2023-02-26T11:38:26;2.95;;;1.20;;
5718;SDS011;2884;47.734;9.244;2023-02-26T11:40:56;1.08;;;0.98;;
5718;SDS011;2884;47.734;9.244;2023-02-26T11:43:23;1.08;;;0.95;;
5718;SDS011;2884;47.734;9.244;2023-02-26T11:45:57;1.83;;;1.35;;
5718;SDS011;2884;47.734;9.244;2023-02-26T11:48:26;1.15;;;1.10;;
5718;SDS011;2884;47.734;9.244;2023-02-26T11:50:56;2.08;;;0.82;;
5718;SDS011;2884;47.734;9.244;2023-02-26T11:53:25;1.52;;;0.60;;
5718;SDS011;2884;47.734;9.244;2023-02-26T11:56:02;0.80;;;0.80;;
5718;SDS011;2884;47.734;9.244;2023-02-26T11:58:34;1.05;;;0.80;;
5718;SDS011;2884;47.734;9.244;2023-02-26T12:01:01;0.98;;;0.90;;
5718;SDS011;2884;47.734;9.244;2023-02-26T12:03:31;1.33;;;1.23;;
5718;SDS011;2884;47.734;9.244;2023-02-26T12:05:58;2.88;;;1.20;;
5718;SDS011;2884;47.734;9.244;2023-02-26T12:08:30;3.20;;;1.40;;
5718;SDS011;2884;47.734;9.244;2023-02-26T12:16:54;0.88;;;0.60;;
5718;SDS011;2884;47.734;9.244;2023-02-26T12:22:14;0.70;;;0.70;;
5718;SDS011;2884;47.734;9.244;2023-02-26T12:35:38;2.03;;;1.00;;
5718;SDS011;2884;47.734;9.244;2023-02-26T12:39:11;1.45;;;0.90;;
5718;SDS011;2884;47.734;9.244;2023-02-26T12:43:55;1.42;;;1.20;;
5718;SDS011;2884;47.734;9.244;2023-02-26T12:49:19;2.20;;;1.20;;
5718;SDS011;2884;47.734;9.244;2023-02-26T12:57:43;1.20;;;1.10;;
5718;SDS011;2884;47.734;9.244;2023-02-26T13:08:11;1.55;;;0.85;;
5718;SDS011;2884;47.734;9.244;2023-02-26T13:13:54;2.60;;;1.20;;
5718;SDS011;2884;47.734;9.244;2023-02-26T13:21:44;1.00;;;1.00;;
5718;SDS011;2884;47.734;9.244;2023-02-26T13:26:56;1.73;;;1.10;;
5718;SDS011;2884;47.734;9.244;2023-02-26T13:32:11;1.30;;;1.20;;
5718;SDS011;2884;47.734;9.244;2023-02-26T13:34:49;2.25;;;1.10;;
5718;SDS011;2884;47.734;9.244;2023-02-26T13:39:48;1.10;;;1.00;;
5718;SDS011;2884;47.734;9.244;2023-02-26T13:42:33;0.82;;;0.82;;
5718;SDS011;2884;47.734;9.244;2023-02-26T13:56:06;2.23;;;1.20;;
5718;SDS011;2884;47.734;9.244;2023-02-26T13:58:39;1.00;;;1.00;;
5718;SDS011;2884;47.734;9.244;2023-02-26T14:01:14;1.00;;;1.00;;
5718;SDS011;2884;47.734;9.244;2023-02-26T14:06:38;0.98;;;0.98;;
5718;SDS011;2884;47.734;9.244;2023-02-26T14:11:57;3.33;;;0.75;;
5718;SDS011;2884;47.734;9.244;2023-02-26T14:19:36;0.98;;;0.98;;
5718;SDS011;2884;47.734;9.244;2023-02-26T14:29:57;1.30;;;1.20;;
5718;SDS011;2884;47.734;9.244;2023-02-26T14:32:26;1.13;;;1.02;;
5718;SDS011;2884;47.734;9.244;2023-02-26T14:34:56;1.40;;;1.30;;
5718;SDS011;2884;47.734;9.244;2023-02-26T14:37:28;1.00;;;1.00;;
5718;SDS011;2884;47.734;9.244;2023-02-26T14:42:35;1.00;;;1.00;;
5718;SDS011;2884;47.734;9.244;2023-02-26T14:47:44;1.30;;;1.20;;
5718;SDS011;2884;47.734;9.244;2023-02-26T14:50:13;1.55;;;1.30;;
5718;SDS011;2884;47.734;9.244;2023-02-26T14:52:43;0.90;;;0.90;;
5718;SDS011;2884;47.734;9.244;2023-02-26T15:06:37;2.35;;;1.25;;
5718;SDS011;2884;47.734;9.244;2023-02-26T15:09:22;1.20;;;1.20;;
5718;SDS011;2884;47.734;9.244;2023-02-26T15:25:50;0.95;;;0.95;;
5718;SDS011;2884;47.734;9.244;2023-02-26T15:28:15;1.02;;;1.02;;
5718;SDS011;2884;47.734;9.244;2023-02-26T15:30:47;1.10;;;1.00;;
5718;SDS011;2884;47.734;9.244;2023-02-26T15:33:13;0.90;;;0.90;;
5718;SDS011;2884;47.734;9.244;2023-02-26T15:35:42;1.23;;;1.13;;
5718;SDS011;2884;47.734;9.244;2023-02-26T15:38:08;0.98;;;0.98;;
5718;SDS011;2884;47.734;9.244;2023-02-26T15:40:35;4.15;;;1.75;;
5718;SDS011;2884;47.734;9.244;2023-02-26T15:43:05;1.17;;;1.08;;
5718;SDS011;2884;47.734;9.244;2023-02-26T15:48:04;1.88;;;1.52;;
5718;SDS011;2884;47.734;9.244;2023-02-26T15:50:34;1.23;;;1.15;;
5718;SDS011;2884;47.734;9.244;2023-02-26T15:53:02;1.10;;;1.00;;
5718;SDS011;2884;47.734;9.244;2023-02-26T15:55:33;1.40;;;1.30;;
5718;SDS011;2884;47.734;9.244;2023-02-26T15:58:01;5.53;;;0.80;;
5718;SDS011;2884;47.734;9.244;2023-02-26T16:00:28;0.70;;;0.70;;
5718;SDS011;2884;47.734;9.244;2023-02-26T16:02:57;1.80;;;1.30;;
5718;SDS011;2884;47.734;9.244;2023-02-26T16:05:26;1.70;;;1.60;;
5718;SDS011;2884;47.734;9.244;2023-02-26T16:07:53;2.00;;;1.52;;
5718;SDS011;2884;47.734;9.244;2023-02-26T16:10:27;1.10;;;1.08;;
5718;SDS011;2884;47.734;9.244;2023-02-26T16:12:53;0.98;;;0.98;;
5718;SDS011;2884;47.734;9.244;2023-02-26T16:15:30;1.57;;;1.47;;
5718;SDS011;2884;47.734;9.244;2023-02-26T16:17:59;1.73;;;1.60;;
5718;SDS011;2884;47.734;9.244;2023-02-26T16:20:27;6.07;;;1.40;;
5718;SDS011;2884;47.734;9.244;2023-02-26T16:23:01;1.60;;;1.35;;
5718;SDS011;2884;47.734;9.244;2023-02-26T16:25:32;1.60;;;1.20;;
5718;SDS011;2884;47.734;9.244;2023-02-26T16:28:22;1.88;;;1.50;;
5718;SDS011;2884;47.734;9.244;2023-02-26T16:30:52;1.48;;;1.38;;
5718;SDS011;2884;47.734;9.244;2023-02-26T16:33:20;2.20;;;1.58;;
5718;SDS011;2884;47.734;9.244;2023-02-26T16:35:48;1.70;;;1.60;;
5718;SDS011;2884;47.734;9.244;2023-02-26T16:38:25;1.35;;;1.25;;
5718;SDS011;2884;47.734;9.244;2023-02-26T16:41:14;1.70;;;1.60;;
5718;SDS011;2884;47.734;9.244;2023-02-26T16:48:57;1.65;;;1.33;;
5718;SDS011;2884;47.734;9.244;2023-02-26T16:51:26;2.90;;;1.65;;
5718;SDS011;2884;47.734;9.244;2023-02-26T16:56:30;2.15;;;2.05;;
5718;SDS011;2884;47.734;9.244;2023-02-26T16:59:04;1.60;;;1.50;;
5718;SDS011;2884;47.734;9.244;2023-02-26T17:01:37;2.08;;;1.67;;
5718;SDS011;2884;47.734;9.244;2023-02-26T17:04:05;2.20;;;2.00;;
5718;SDS011;2884;47.734;9.244;2023-02-26T17:06:31;2.10;;;1.90;;
5718;SDS011;2884;47.734;9.244;2023-02-26T17:09:00;3.65;;;2.53;;
5718;SDS011;2884;47.734;9.244;2023-02-26T17:11:31;2.33;;;2.13;;
5718;SDS011;2884;47.734;9.244;2023-02-26T17:14:14;6.72;;;3.17;;
5718;SDS011;2884;47.734;9.244;2023-02-26T17:16:45;2.08;;;1.83;;
5718;SDS011;2884;47.734;9.244;2023-02-26T17:19:11;2.95;;;2.30;;
5718;SDS011;2884;47.734;9.244;2023-02-26T17:21:41;2.70;;;2.50;;
5718;SDS011;2884;47.734;9.244;2023-02-26T17:24:16;3.13;;;2.60;;
5718;SDS011;2884;47.734;9.244;2023-02-26T17:26:43;6.25;;;2.05;;
5718;SDS011;2884;47.734;9.244;2023-02-26T17:29:14;1.92;;;1.80;;
5718;SDS011;2884;47.734;9.244;2023-02-26T17:31:47;2.45;;;1.83;;
5718;SDS011;2884;47.734;9.244;2023-02-26T17:34:13;3.05;;;1.80;;
5718;SDS011;2884;47.734;9.244;2023-02-26T17:36:39;2.43;;;1.40;;
5718;SDS011;2884;47.734;9.244;2023-02-26T17:39:05;1.13;;;0.83;;
5718;SDS011;2884;47.734;9.244;2023-02-26T17:41:31;0.90;;;0.90;;
5718;SDS011;2884;47.734;9.244;2023-02-26T17:43:58;1.45;;;1.25;;
5718;SDS011;2884;47.734;9.244;2023-02-26T17:46:24;2.05;;;0.90;;
5718;SDS011;2884;47.734;9.244;2023-02-26T17:48:49;2.00;;;1.20;;
5718;SDS011;2884;47.734;9.244;2023-02-26T17:51:15;1.30;;;1.20;;
5718;SDS011;2884;47.734;9.244;2023-02-26T17:53:41;1.50;;;1.40;;
5718;SDS011;2884;47.734;9.244;2023-02-26T17:56:13;1.30;;;1.20;;
5718;SDS011;2884;47.734;9.244;2023-02-26T17:58:41;1.30;;;1.20;;
5718;SDS011;2884;47.734;9.244;2023-02-26T18:01:08;1.53;;;1.20;;
5718;SDS011;2884;47.734;9.244;2023-02-26T18:03:34;0.70;;;0.70;;
5718;SDS011;2884;47.734;9.244;2023-02-26T18:06:00;1.00;;;1.00;;
5718;SDS011;2884;47.734;9.244;2023-02-26T18:08:29;1.33;;;0.87;;
5718;SDS011;2884;47.734;9.244;2023-02-26T18:10:56;4.03;;;3.22;;
5718;SDS011;2884;47.734;9.244;2023-02-26T18:13:23;4.03;;;3.20;;
5718;SDS011;2884;47.734;9.244;2023-02-26T18:15:49;5.13;;;2.53;;
5718;SDS011;2884;47.734;9.244;2023-02-26T18:18:17;6.75;;;3.88;;
5718;SDS011;2884;47.734;9.244;2023-02-26T18:20:44;5.22;;;3.00;;
5718;SDS011;2884;47.734;9.244;2023-02-26T18:23:10;7.80;;;4.40;;
5718;SDS011;2884;47.734;9.244;2023-02-26T18:25:41;5.00;;;3.47;;
5718;SDS011;2884;47.734;9.244;2023-02-26T18:28:21;4.68;;;3.47;;
5718;SDS011;2884;47.734;9.244;2023-02-26T18:30:48;9.63;;;4.20;;
5718;SDS011;2884;47.734;9.244;2023-02-26T18:33:15;9.43;;;4.50;;
5718;SDS011;2884;47.734;9.244;2023-02-26T18:35:42;14.23;;;6.27;;
5718;SDS011;2884;47.734;9.244;2023-02-26T18:38:15;12.10;;;6.50;;
5718;SDS011;2884;47.734;9.244;2023-02-26T18:40:42;9.25;;;5.40;;
5718;SDS011;2884;47.734;9.244;2023-02-26T18:43:08;9.20;;;4.50;;
5718;SDS011;2884;47.734;9.244;2023-02-26T18:45:46;7.82;;;4.22;;
5718;SDS011;2884;47.734;9.244;2023-02-26T18:48:14;11.07;;;3.90;;
5718;SDS011;2884;47.734;9.244;2023-02-26T18:50:41;7.13;;;3.85;;
5718;SDS011;2884;47.734;9.244;2023-02-26T18:53:06;4.78;;;3.88;;
5718;SDS011;2884;47.734;9.244;2023-02-26T18:55:33;6.78;;;4.05;;
5718;SDS011;2884;47.734;9.244;2023-02-26T18:58:01;7.57;;;4.40;;
5718;SDS011;2884;47.734;9.244;2023-02-26T19:00:28;9.73;;;4.35;;
5718;SDS011;2884;47.734;9.244;2023-02-26T19:02:54;9.98;;;4.95;;